Time;durP1;ratioP1;P1;durP2;ratioP2;P2;SDS_P1;SDS_P2;PMS_P1;PMS_P2;Temp;Humidity;BMP_temperature;BMP_pressure;BME280_temperature;BME280_humidity;BME280_pressure;Samples;Min_cycle;Max_cycle;Signal;HPM_P1;HPM_P2
2023/12/30 00:01:39;;;;;;;0.90;0.40;;;14.80;35.80;;;;;;5014328;28;20198;-46
2023/12/30 00:04:04;;;;;;;0.90;0.40;;;14.60;36.10;;;;;;5014210;28;20213;-47
2023/12/30 00:06:30;;;;;;;0.90;0.40;;;14.50;36.40;;;;;;5014369;28;20178;-52
2023/12/30 00:08:56;;;;;;;0.90;0.30;;;14.40;36.50;;;;;;5014014;28;20513;-50
2023/12/30 00:11:23;;;;;;;1.00;0.50;;;14.40;36.60;;;;;;5014092;28;20198;-51
2023/12/30 00:13:49;;;;;;;1.20;0.77;;;14.50;36.40;;;;;;5013920;28;20202;-47
2023/12/30 00:16:15;;;;;;;1.00;0.67;;;14.50;36.10;;;;;;5014156;28;20186;-48
2023/12/30 00:18:40;;;;;;;0.90;0.30;;;14.50;36.20;;;;;;5013973;28;20409;-50
2023/12/30 00:21:06;;;;;;;1.10;0.40;;;14.40;36.30;;;;;;5013922;28;20418;-47
2023/12/30 00:23:33;;;;;;;1.00;0.60;;;14.40;36.30;;;;;;5013873;28;20273;-52
2023/12/30 00:25:58;;;;;;;0.90;0.40;;;14.30;36.50;;;;;;5014046;28;20202;-45
2023/12/30 00:28:24;;;;;;;0.90;0.40;;;14.40;36.50;;;;;;5013698;28;20206;-51
2023/12/30 00:30:50;;;;;;;1.10;0.60;;;14.30;36.50;;;;;;5013909;28;20416;-50
2023/12/30 00:33:16;;;;;;;1.20;0.53;;;14.40;36.40;;;;;;5013632;28;20195;-48
2023/12/30 00:35:41;;;;;;;1.00;0.52;;;14.30;36.60;;;;;;5013798;28;20253;-48
2023/12/30 00:38:07;;;;;;;1.00;0.40;;;14.30;36.60;;;;;;5013387;28;20179;-46
2023/12/30 00:40:33;;;;;;;1.50;0.63;;;14.40;36.40;;;;;;5013953;28;20262;-51
2023/12/30 00:42:58;;;;;;;2.27;1.43;;;14.40;36.20;;;;;;5012684;28;20594;-51
2023/12/30 00:45:24;;;;;;;1.00;0.50;;;14.40;36.30;;;;;;5013408;28;20213;-46
2023/12/30 00:47:50;;;;;;;1.00;0.40;;;14.30;36.30;;;;;;5013531;28;20190;-50
2023/12/30 00:50:16;;;;;;;1.00;0.60;;;14.20;36.60;;;;;;5013311;28;20209;-47
2023/12/30 00:52:41;;;;;;;1.10;0.63;;;14.30;36.30;;;;;;5013347;28;20487;-47
2023/12/30 00:55:07;;;;;;;0.90;0.40;;;14.10;36.80;;;;;;5013376;28;20618;-50
2023/12/30 00:57:33;;;;;;;1.98;1.00;;;14.20;36.60;;;;;;5013374;28;20246;-47
2023/12/30 00:59:59;;;;;;;1.00;0.60;;;14.10;36.60;;;;;;5013222;28;20176;-46
2023/12/30 01:02:24;;;;;;;0.83;0.30;;;14.20;36.40;;;;;;5013237;28;20548;-51
2023/12/30 01:04:50;;;;;;;0.90;0.40;;;14.20;36.50;;;;;;5013194;28;20198;-50
2023/12/30 01:07:16;;;;;;;1.00;0.60;;;14.20;36.60;;;;;;5013104;28;20265;-46
2023/12/30 01:09:42;;;;;;;1.00;0.53;;;14.20;36.50;;;;;;5013040;28;20580;-49
2023/12/30 01:12:07;;;;;;;0.90;0.50;;;14.10;36.80;;;;;;5013332;28;20189;-51
2023/12/30 01:14:33;;;;;;;0.90;0.47;;;14.10;36.60;;;;;;5013125;28;20545;-46
2023/12/30 01:16:59;;;;;;;0.97;0.50;;;14.10;36.80;;;;;;5012882;28;20185;-47
2023/12/30 01:19:25;;;;;;;1.30;0.63;;;14.10;37.20;;;;;;5012884;28;20421;-50
2023/12/30 01:21:51;;;;;;;1.83;0.70;;;14.10;36.90;;;;;;5012912;28;20225;-46
2023/12/30 01:24:16;;;;;;;1.00;0.50;;;14.10;37.00;;;;;;5012745;28;20472;-48
2023/12/30 01:26:42;;;;;;;1.20;0.75;;;14.00;37.20;;;;;;5006503;28;20219;-46
2023/12/30 01:29:08;;;;;;;1.10;0.67;;;14.00;37.20;;;;;;4993229;28;20175;-47
2023/12/30 01:31:36;;;;;;;1.30;0.90;;;13.90;37.40;;;;;;4993144;28;20305;-48
2023/12/30 01:34:02;;;;;;;1.10;0.70;;;14.00;37.40;;;;;;4992893;28;20705;-46
2023/12/30 01:36:28;;;;;;;1.00;0.60;;;14.00;37.40;;;;;;4993094;28;20190;-46
2023/12/30 01:38:54;;;;;;;1.10;0.70;;;13.90;37.40;;;;;;4992847;28;20175;-50
2023/12/30 01:41:20;;;;;;;1.00;0.47;;;14.00;37.40;;;;;;4993161;28;20179;-49
2023/12/30 01:43:45;;;;;;;1.10;0.70;;;14.00;37.40;;;;;;4992939;28;20207;-46
2023/12/30 01:46:12;;;;;;;1.00;0.50;;;13.90;37.40;;;;;;4993041;28;20548;-48
2023/12/30 01:48:38;;;;;;;1.73;1.00;;;14.00;37.30;;;;;;4992793;28;20183;-49
2023/12/30 01:51:08;;;;;;;1.02;0.40;;;14.00;37.20;;;;;;4993011;28;20183;-46
2023/12/30 01:53:38;;;;;;;1.10;0.82;;;13.90;37.50;;;;;;4992432;28;20688;-50
2023/12/30 01:56:05;;;;;;;0.90;0.40;;;14.00;37.80;;;;;;4992753;28;20203;-47
2023/12/30 01:58:31;;;;;;;1.00;0.60;;;14.00;37.60;;;;;;4997391;28;20171;-50
2023/12/30 02:01:00;;;;;;;1.48;0.63;;;14.20;37.50;;;;;;5012273;28;20538;-49
2023/12/30 02:03:26;;;;;;;2.38;0.88;;;14.10;37.70;;;;;;5012228;28;20178;-48
2023/12/30 02:05:53;;;;;;;1.00;0.60;;;14.00;37.70;;;;;;5012169;28;20549;-49
2023/12/30 02:08:18;;;;;;;1.10;0.80;;;13.90;37.90;;;;;;5011730;28;20541;-46
2023/12/30 02:10:44;;;;;;;0.80;0.30;;;13.90;38.00;;;;;;5012337;28;20178;-49
2023/12/30 02:13:10;;;;;;;0.90;0.30;;;13.90;38.10;;;;;;5010152;28;20750;-46
2023/12/30 02:15:36;;;;;;;0.90;0.40;;;14.00;38.30;;;;;;4992605;28;20191;-50
2023/12/30 02:18:03;;;;;;;2.00;1.00;;;14.20;38.40;;;;;;4992325;28;20181;-50
2023/12/30 02:20:30;;;;;;;1.42;0.60;;;14.20;38.20;;;;;;4992519;28;20414;-47
2023/12/30 02:22:56;;;;;;;1.05;0.65;;;14.30;38.30;;;;;;4992443;28;20266;-50
2023/12/30 02:25:22;;;;;;;1.45;1.00;;;14.40;38.50;;;;;;4992899;28;20312;-46
2023/12/30 02:27:47;;;;;;;1.00;0.70;;;14.20;38.90;;;;;;4993194;28;20570;-48
2023/12/30 02:30:14;;;;;;;1.00;0.60;;;14.20;38.50;;;;;;4993066;28;20414;-51
2023/12/30 02:32:40;;;;;;;1.00;0.60;;;14.20;38.50;;;;;;4992770;28;20278;-45
2023/12/30 02:35:06;;;;;;;1.00;0.65;;;14.10;39.00;;;;;;4992513;28;20214;-47
2023/12/30 02:37:31;;;;;;;1.20;0.60;;;14.00;39.50;;;;;;4992170;28;20175;-49
2023/12/30 02:39:57;;;;;;;1.53;0.77;;;13.90;39.90;;;;;;4971542;28;21107;-48
2023/12/30 02:42:23;;;;;;;1.00;0.75;;;13.90;39.60;;;;;;4992261;28;20176;-47
2023/12/30 02:44:49;;;;;;;0.90;0.37;;;13.90;39.60;;;;;;4991992;28;20253;-50
2023/12/30 02:47:15;;;;;;;1.00;0.60;;;13.80;40.00;;;;;;4992243;28;20633;-46
2023/12/30 02:49:45;;;;;;;1.50;1.03;;;13.70;39.90;;;;;;4992268;28;20217;-48
2023/12/30 02:52:11;;;;;;;0.93;0.50;;;13.70;40.70;;;;;;4992054;28;20175;-47
2023/12/30 02:54:37;;;;;;;0.95;0.50;;;13.50;41.20;;;;;;4992046;28;20198;-46
2023/12/30 02:57:03;;;;;;;1.27;0.93;;;13.50;41.70;;;;;;4992143;28;20180;-51
2023/12/30 02:59:30;;;;;;;1.30;0.88;;;13.40;42.30;;;;;;4996386;28;20178;-49
2023/12/30 03:01:56;;;;;;;0.95;0.57;;;13.30;42.90;;;;;;5011738;28;20170;-46
2023/12/30 03:04:22;;;;;;;1.20;0.70;;;13.30;42.50;;;;;;5011580;28;20529;-48
2023/12/30 03:06:48;;;;;;;0.90;0.52;;;13.40;42.60;;;;;;5013560;28;20437;-48
2023/12/30 03:09:14;;;;;;;1.17;0.80;;;13.30;42.60;;;;;;5015201;28;20205;-45
2023/12/30 03:11:40;;;;;;;1.00;0.68;;;13.20;42.70;;;;;;5015483;28;20493;-49
2023/12/30 03:14:06;;;;;;;1.97;1.10;;;13.20;42.70;;;;;;5015103;28;20575;-52
2023/12/30 03:16:32;;;;;;;1.00;0.70;;;13.20;42.60;;;;;;5015430;28;20410;-48
2023/12/30 03:18:58;;;;;;;1.60;0.50;;;13.30;42.40;;;;;;5014989;28;20787;-49
2023/12/30 03:21:24;;;;;;;1.00;0.60;;;13.30;42.10;;;;;;5015214;28;20171;-53
2023/12/30 03:23:50;;;;;;;0.95;0.50;;;13.40;41.80;;;;;;5015204;28;20716;-48
2023/12/30 03:26:16;;;;;;;2.10;0.80;;;13.40;41.60;;;;;;5014983;28;20189;-44
2023/12/30 03:28:43;;;;;;;1.10;0.80;;;13.40;41.40;;;;;;5014851;28;20261;-48
2023/12/30 03:31:22;;;;;;;1.10;0.90;;;13.40;41.60;;;;;;5014983;28;20190;-48
2023/12/30 03:33:48;;;;;;;0.90;0.40;;;13.30;41.60;;;;;;5014766;28;20210;-48
2023/12/30 03:36:13;;;;;;;0.93;0.60;;;13.30;41.70;;;;;;5015073;28;20220;-51
2023/12/30 03:38:39;;;;;;;1.00;0.73;;;13.20;41.70;;;;;;5009051;28;20468;-51
2023/12/30 03:41:05;;;;;;;1.07;0.80;;;13.20;42.00;;;;;;4995160;28;20262;-46
2023/12/30 03:43:30;;;;;;;0.97;0.50;;;13.20;41.80;;;;;;4995011;28;20186;-53
2023/12/30 03:45:56;;;;;;;1.20;0.70;;;13.20;41.70;;;;;;4995340;28;20644;-47
2023/12/30 03:48:22;;;;;;;1.00;0.80;;;13.30;41.80;;;;;;4994915;28;20279;-49
2023/12/30 03:50:48;;;;;;;1.20;0.77;;;13.30;41.70;;;;;;4995136;28;20691;-49
2023/12/30 03:53:14;;;;;;;1.43;0.80;;;13.40;41.50;;;;;;4994744;28;20454;-49
2023/12/30 03:55:39;;;;;;;7.13;0.83;;;13.30;41.70;;;;;;4994937;28;20563;-46
2023/12/30 03:58:05;;;;;;;1.00;0.60;;;13.30;41.60;;;;;;4994741;28;20191;-50
2023/12/30 04:00:31;;;;;;;1.07;0.87;;;13.30;41.40;;;;;;4994874;28;20176;-47
2023/12/30 04:02:56;;;;;;;1.13;0.80;;;13.40;41.40;;;;;;4994782;28;20265;-49
2023/12/30 04:05:22;;;;;;;0.90;0.47;;;13.40;41.30;;;;;;4994616;28;20569;-46
2023/12/30 04:07:48;;;;;;;1.75;1.10;;;13.40;41.50;;;;;;4994864;28;20179;-46
2023/12/30 04:10:17;;;;;;;0.97;0.50;;;13.40;41.50;;;;;;4994522;28;20240;-51
2023/12/30 04:12:43;;;;;;;1.10;0.63;;;13.40;41.60;;;;;;4994647;28;20463;-50
2023/12/30 04:15:10;;;;;;;1.20;0.75;;;13.50;42.00;;;;;;4994513;28;20620;-48
2023/12/30 04:17:36;;;;;;;1.42;0.80;;;13.40;42.50;;;;;;4993346;28;20248;-46
2023/12/30 04:20:02;;;;;;;1.25;0.75;;;13.50;42.40;;;;;;4994465;28;20194;-47
2023/12/30 04:22:34;;;;;;;1.50;0.65;;;13.60;41.90;;;;;;4977066;28;20171;-48
2023/12/30 04:25:00;;;;;;;1.77;1.20;;;13.70;41.70;;;;;;4994468;28;20364;-48
2023/12/30 04:27:25;;;;;;;1.00;0.60;;;13.70;41.60;;;;;;4994438;28;20251;-51
2023/12/30 04:29:51;;;;;;;1.27;0.97;;;13.70;41.30;;;;;;4994167;28;20278;-48
2023/12/30 04:32:18;;;;;;;0.90;0.50;;;13.70;41.50;;;;;;4977030;28;20175;-47
2023/12/30 04:34:44;;;;;;;1.23;1.08;;;13.70;41.70;;;;;;4994346;28;20429;-51
2023/12/30 04:37:10;;;;;;;1.00;0.60;;;13.60;41.50;;;;;;4994285;28;20262;-47
2023/12/30 04:39:36;;;;;;;1.10;0.65;;;13.50;41.60;;;;;;4994025;28;20176;-46
2023/12/30 04:42:02;;;;;;;0.90;0.43;;;13.30;41.70;;;;;;4993943;28;20183;-50
2023/12/30 04:44:27;;;;;;;0.90;0.40;;;13.20;42.20;;;;;;4993853;28;20217;-47
2023/12/30 04:46:53;;;;;;;1.00;0.70;;;13.10;42.30;;;;;;4994228;28;20181;-44
2023/12/30 04:49:19;;;;;;;1.10;0.73;;;12.90;42.80;;;;;;4993903;28;20245;-48
2023/12/30 04:51:44;;;;;;;1.00;0.67;;;12.90;43.10;;;;;;4993941;28;20175;-47
2023/12/30 04:54:10;;;;;;;1.10;0.70;;;12.90;42.90;;;;;;5003352;28;20209;-49
2023/12/30 04:56:36;;;;;;;1.20;0.57;;;12.90;42.80;;;;;;5013449;28;20167;-48
2023/12/30 04:59:02;;;;;;;1.00;0.80;;;12.90;42.90;;;;;;5013062;28;20313;-47
2023/12/30 05:01:31;;;;;;;0.95;0.50;;;12.90;43.10;;;;;;5013523;28;20178;-49
2023/12/30 05:03:56;;;;;;;1.00;0.70;;;12.80;43.30;;;;;;5013322;28;20231;-45
2023/12/30 05:06:23;;;;;;;1.00;0.57;;;12.80;43.40;;;;;;5013286;28;20198;-51
2023/12/30 05:08:50;;;;;;;1.00;0.60;;;12.70;43.60;;;;;;5013045;28;20735;-47
2023/12/30 05:11:16;;;;;;;1.20;1.05;;;12.70;43.50;;;;;;5013174;28;20209;-52
2023/12/30 05:13:43;;;;;;;1.42;1.20;;;12.80;43.60;;;;;;5012768;28;20688;-48
2023/12/30 05:16:09;;;;;;;1.00;0.65;;;12.80;43.20;;;;;;5013008;28;20265;-47
2023/12/30 05:18:35;;;;;;;1.10;0.70;;;12.80;43.30;;;;;;5012805;28;20318;-47
2023/12/30 05:21:02;;;;;;;0.93;0.60;;;12.70;43.50;;;;;;5012929;28;20414;-49
2023/12/30 05:23:28;;;;;;;1.10;0.70;;;12.70;43.40;;;;;;5012968;28;20183;-49
2023/12/30 05:25:53;;;;;;;1.03;0.63;;;12.70;43.50;;;;;;5012873;28;20179;-45
2023/12/30 05:28:19;;;;;;;1.37;1.07;;;12.60;43.60;;;;;;5012451;28;20182;-46
2023/12/30 05:30:45;;;;;;;1.10;0.50;;;12.50;43.20;;;;;;5012558;28;20179;-50
2023/12/30 05:33:11;;;;;;;1.00;0.60;;;12.60;43.20;;;;;;5012689;28;20484;-45
2023/12/30 05:35:36;;;;;;;1.00;0.50;;;12.50;43.30;;;;;;5013079;28;20249;-49
2023/12/30 05:38:03;;;;;;;1.00;0.60;;;12.50;43.20;;;;;;5012807;28;20170;-50
2023/12/30 05:40:30;;;;;;;0.90;0.50;;;12.40;43.00;;;;;;5012620;28;20175;-48
2023/12/30 05:42:56;;;;;;;1.13;1.00;;;12.40;43.00;;;;;;5012580;28;20187;-47
2023/12/30 05:45:21;;;;;;;0.97;0.60;;;12.40;42.50;;;;;;5012433;28;20297;-49
2023/12/30 05:47:47;;;;;;;1.00;0.70;;;12.40;41.80;;;;;;5012720;28;20202;-46
2023/12/30 05:50:13;;;;;;;1.00;0.60;;;12.30;42.20;;;;;;5012633;28;20225;-46
2023/12/30 05:52:39;;;;;;;0.97;0.57;;;12.20;41.60;;;;;;5012387;28;20230;-47
2023/12/30 05:55:05;;;;;;;1.00;0.70;;;12.10;41.90;;;;;;5012278;28;20202;-47
2023/12/30 05:57:32;;;;;;;1.00;0.70;;;12.20;41.60;;;;;;5012162;28;20269;-50
2023/12/30 05:59:57;;;;;;;1.00;0.70;;;12.20;41.30;;;;;;5012271;28;20186;-44
2023/12/30 06:02:23;;;;;;;1.10;0.90;;;12.40;41.10;;;;;;5012181;28;20206;-46
2023/12/30 06:04:49;;;;;;;1.00;0.77;;;12.40;40.80;;;;;;5012126;28;20191;-50
2023/12/30 06:07:15;;;;;;;1.10;1.00;;;12.60;40.60;;;;;;5012184;28;20261;-46
2023/12/30 06:09:44;;;;;;;1.00;0.53;;;12.60;40.30;;;;;;5012010;28;20444;-45
2023/12/30 06:12:10;;;;;;;1.92;0.73;;;12.50;40.60;;;;;;5011985;28;20838;-48
2023/12/30 06:14:36;;;;;;;1.10;0.90;;;12.50;41.00;;;;;;5012028;28;20207;-48
2023/12/30 06:17:02;;;;;;;1.13;0.87;;;12.50;40.80;;;;;;5012156;28;20174;-46
2023/12/30 06:19:28;;;;;;;1.00;0.68;;;12.60;40.70;;;;;;5011948;28;20437;-48
2023/12/30 06:21:54;;;;;;;0.95;0.52;;;12.50;40.90;;;;;;5012109;28;20253;-44
2023/12/30 06:24:21;;;;;;;1.00;0.63;;;12.50;41.10;;;;;;4992997;28;20199;-48
2023/12/30 06:26:46;;;;;;;1.20;0.50;;;12.50;41.20;;;;;;4992386;28;20604;-50
2023/12/30 06:29:12;;;;;;;1.20;1.10;;;12.60;41.00;;;;;;4992331;28;20184;-47
2023/12/30 06:31:42;;;;;;;0.90;0.50;;;12.60;40.80;;;;;;4992454;28;20233;-44
2023/12/30 06:34:09;;;;;;;3.72;1.13;;;12.80;40.90;;;;;;4992438;28;20210;-47
2023/12/30 06:36:35;;;;;;;1.10;0.85;;;12.80;40.50;;;;;;4992396;28;20210;-45
2023/12/30 06:39:01;;;;;;;0.97;0.53;;;12.70;40.60;;;;;;4992105;28;20183;-50
2023/12/30 06:41:27;;;;;;;0.90;0.40;;;12.80;40.60;;;;;;4985734;28;20469;-48
2023/12/30 06:43:53;;;;;;;1.00;0.70;;;12.90;40.60;;;;;;4996295;28;20214;-45
2023/12/30 06:46:22;;;;;;;1.93;0.90;;;12.90;40.50;;;;;;4996267;28;20190;-45
2023/12/30 06:48:47;;;;;;;1.00;0.65;;;12.80;41.30;;;;;;4996125;28;20222;-54
2023/12/30 06:51:13;;;;;;;1.87;0.60;;;12.90;40.60;;;;;;4996206;28;20187;-47
2023/12/30 06:53:39;;;;;;;1.02;0.55;;;12.90;40.40;;;;;;4995840;28;20715;-45
2023/12/30 06:56:08;;;;;;;1.00;0.60;;;12.90;40.60;;;;;;4996344;28;20187;-50
2023/12/30 06:58:34;;;;;;;0.90;0.40;;;12.90;40.60;;;;;;4996032;28;20502;-45
2023/12/30 07:01:00;;;;;;;1.10;0.75;;;12.90;40.40;;;;;;4996314;28;20183;-48
2023/12/30 07:03:26;;;;;;;1.00;0.50;;;13.00;40.50;;;;;;4995884;28;20537;-49
2023/12/30 07:05:51;;;;;;;0.93;0.60;;;13.00;40.70;;;;;;4996055;28;20649;-45
2023/12/30 07:08:17;;;;;;;1.10;0.70;;;13.00;40.50;;;;;;4995482;28;20259;-45
2023/12/30 07:10:43;;;;;;;0.90;0.40;;;13.00;40.60;;;;;;4996027;28;20501;-46
2023/12/30 07:13:09;;;;;;;1.03;0.70;;;12.90;40.90;;;;;;4996868;28;20210;-45
2023/12/30 07:15:34;;;;;;;1.00;0.60;;;13.00;40.90;;;;;;5015410;28;20530;-51
2023/12/30 07:18:00;;;;;;;1.40;0.73;;;12.90;41.10;;;;;;5015029;28;20664;-51
2023/12/30 07:20:26;;;;;;;1.00;0.70;;;12.80;41.40;;;;;;5015146;28;20198;-47
2023/12/30 07:22:56;;;;;;;2.80;0.63;;;12.80;41.70;;;;;;5015000;28;20918;-50
2023/12/30 07:25:22;;;;;;;0.95;0.52;;;12.80;41.60;;;;;;5015190;28;20296;-46
2023/12/30 07:27:49;;;;;;;0.93;0.60;;;12.70;41.60;;;;;;5015015;28;20189;-48
2023/12/30 07:30:14;;;;;;;1.20;0.90;;;12.70;41.70;;;;;;5014901;28;20179;-49
2023/12/30 07:32:40;;;;;;;1.00;0.80;;;12.80;41.50;;;;;;5014994;28;20679;-47
2023/12/30 07:35:07;;;;;;;1.00;0.60;;;12.60;41.60;;;;;;5014911;28;20241;-44
2023/12/30 07:37:33;;;;;;;0.90;0.50;;;12.50;41.90;;;;;;5014817;28;20206;-51
2023/12/30 07:40:00;;;;;;;1.00;0.60;;;12.40;41.70;;;;;;5007053;28;20653;-46
2023/12/30 07:42:26;;;;;;;0.93;0.52;;;12.30;41.80;;;;;;4995617;28;20175;-46
2023/12/30 07:44:53;;;;;;;1.83;1.70;;;12.20;41.80;;;;;;5003110;28;20210;-46
2023/12/30 07:47:19;;;;;;;2.45;1.00;;;12.10;42.00;;;;;;5013536;28;20289;-54
2023/12/30 07:49:49;;;;;;;1.00;0.60;;;12.20;41.80;;;;;;4995805;28;20171;-51
2023/12/30 07:52:14;;;;;;;1.00;0.60;;;12.20;42.00;;;;;;4995588;28;20190;-44
2023/12/30 07:54:40;;;;;;;1.00;0.77;;;12.20;41.70;;;;;;4995160;28;20219;-47
2023/12/30 07:57:06;;;;;;;1.00;0.63;;;12.30;41.90;;;;;;4994905;28;20772;-48
2023/12/30 07:59:31;;;;;;;1.00;0.60;;;12.40;41.70;;;;;;4994696;28;20175;-45
2023/12/30 08:01:57;;;;;;;1.40;1.30;;;12.30;41.80;;;;;;4994990;28;20175;-45
2023/12/30 08:04:24;;;;;;;0.90;0.43;;;12.40;41.50;;;;;;4994655;28;20201;-49
2023/12/30 08:06:50;;;;;;;1.17;0.98;;;12.50;41.40;;;;;;4995180;28;20574;-51
2023/12/30 08:09:16;;;;;;;2.85;0.90;;;12.60;41.30;;;;;;5004418;28;20600;-46
2023/12/30 08:11:43;;;;;;;2.05;0.80;;;12.90;41.20;;;;;;5014258;28;20202;-45
2023/12/30 08:14:09;;;;;;;0.90;0.50;;;13.10;40.90;;;;;;5014056;28;20228;-48
2023/12/30 08:16:35;;;;;;;1.00;0.50;;;13.30;40.10;;;;;;5014153;28;20266;-48
2023/12/30 08:19:02;;;;;;;0.90;0.40;;;13.40;39.60;;;;;;5013867;28;20265;-46
2023/12/30 08:21:28;;;;;;;1.00;0.73;;;13.30;39.40;;;;;;5014255;28;20255;-47
2023/12/30 08:23:56;;;;;;;0.98;0.50;;;13.30;39.70;;;;;;5013893;28;20198;-46
2023/12/30 08:26:22;;;;;;;1.00;0.80;;;13.30;39.70;;;;;;5013794;28;20179;-46
2023/12/30 08:28:48;;;;;;;1.30;1.20;;;13.30;39.40;;;;;;5013714;28;20210;-50
2023/12/30 08:31:14;;;;;;;0.90;0.50;;;13.20;39.40;;;;;;5012338;28;20456;-48
2023/12/30 08:33:40;;;;;;;1.00;0.73;;;13.20;39.50;;;;;;4994045;28;20458;-49
2023/12/30 08:36:06;;;;;;;0.90;0.40;;;13.20;39.30;;;;;;4994560;28;20445;-46
2023/12/30 08:38:32;;;;;;;0.90;0.40;;;13.10;39.60;;;;;;5009819;28;20560;-46
2023/12/30 08:40:59;;;;;;;1.00;0.60;;;13.10;39.50;;;;;;4994175;28;20175;-51
2023/12/30 08:43:24;;;;;;;1.88;1.77;;;12.90;39.50;;;;;;4993986;28;20175;-50
2023/12/30 08:45:50;;;;;;;1.00;0.63;;;13.00;40.50;;;;;;4994249;28;20184;-45
2023/12/30 08:48:16;;;;;;;1.00;0.73;;;13.00;39.50;;;;;;4993671;28;20190;-52
2023/12/30 08:50:44;;;;;;;0.90;0.50;;;13.10;39.60;;;;;;4994135;28;20207;-49
2023/12/30 08:53:11;;;;;;;0.90;0.50;;;13.20;39.30;;;;;;4993731;28;20739;-45
2023/12/30 08:55:37;;;;;;;1.02;0.60;;;13.30;39.40;;;;;;4994075;28;20206;-47
2023/12/30 08:58:03;;;;;;;0.97;0.57;;;13.30;39.40;;;;;;4993797;28;20261;-53
2023/12/30 09:00:28;;;;;;;1.10;0.83;;;13.20;39.80;;;;;;4985848;28;20406;-45
2023/12/30 09:02:55;;;;;;;0.90;0.40;;;13.10;40.10;;;;;;4993727;28;20465;-45
2023/12/30 09:05:22;;;;;;;1.52;0.82;;;13.10;40.00;;;;;;4992798;28;20257;-52
2023/12/30 09:07:51;;;;;;;1.00;0.70;;;13.00;40.20;;;;;;4993626;28;20184;-52
2023/12/30 09:10:17;;;;;;;0.90;0.50;;;13.00;40.50;;;;;;4993523;28;20665;-47
2023/12/30 09:12:45;;;;;;;1.10;1.00;;;13.00;40.40;;;;;;4993484;28;20191;-49
2023/12/30 09:15:11;;;;;;;1.00;0.70;;;13.00;40.40;;;;;;4993285;28;20426;-52
2023/12/30 09:17:36;;;;;;;0.90;0.43;;;13.00;40.50;;;;;;4993494;28;20677;-45
2023/12/30 09:20:03;;;;;;;1.00;0.67;;;13.00;40.60;;;;;;4993396;28;20183;-45
2023/12/30 09:22:29;;;;;;;0.98;0.60;;;13.00;40.90;;;;;;4993408;28;20175;-52
2023/12/30 09:24:55;;;;;;;3.60;1.65;;;13.00;40.50;;;;;;4993323;28;20197;-49
2023/12/30 09:27:21;;;;;;;1.00;0.60;;;13.10;40.60;;;;;;4993419;28;20183;-45
2023/12/30 09:29:48;;;;;;;2.65;0.88;;;13.10;40.60;;;;;;4993173;28;20175;-48
2023/12/30 09:32:13;;;;;;;1.10;0.90;;;13.20;40.40;;;;;;4993365;28;20251;-48
2023/12/30 09:34:39;;;;;;;0.90;0.50;;;13.30;40.20;;;;;;4992973;28;20211;-45
2023/12/30 09:37:05;;;;;;;1.40;0.87;;;13.40;40.10;;;;;;4993142;28;20179;-46
2023/12/30 09:39:31;;;;;;;1.00;0.63;;;13.40;39.60;;;;;;4992965;28;20186;-52
2023/12/30 09:41:57;;;;;;;1.00;0.63;;;13.30;39.80;;;;;;4993088;28;20410;-52
2023/12/30 09:44:25;;;;;;;0.90;0.30;;;13.20;39.70;;;;;;4992668;28;20221;-46
2023/12/30 09:46:52;;;;;;;1.00;0.85;;;13.30;39.80;;;;;;4993116;28;20422;-50
2023/12/30 09:49:19;;;;;;;1.20;0.80;;;13.40;39.90;;;;;;4992714;28;20194;-50
2023/12/30 09:51:45;;;;;;;0.98;0.50;;;13.50;39.40;;;;;;4992911;28;20534;-45
2023/12/30 09:54:10;;;;;;;1.03;0.70;;;13.50;39.00;;;;;;4992677;28;20215;-48
2023/12/30 09:56:39;;;;;;;0.90;0.50;;;13.50;39.40;;;;;;4975470;28;20414;-50
2023/12/30 09:59:05;;;;;;;1.17;0.70;;;13.60;39.00;;;;;;4992499;28;20171;-47
2023/12/30 10:01:31;;;;;;;10.13;1.27;;;13.70;39.10;;;;;;4992965;28;20322;-52
2023/12/30 10:03:57;;;;;;;0.90;0.45;;;13.80;38.90;;;;;;4992614;28;20199;-51
2023/12/30 10:06:24;;;;;;;0.97;0.53;;;14.10;39.10;;;;;;4992674;28;20241;-47
2023/12/30 10:08:50;;;;;;;1.20;0.93;;;14.60;38.40;;;;;;4992445;28;20182;-49
2023/12/30 10:11:17;;;;;;;1.35;0.85;;;15.20;38.20;;;;;;4992824;28;20182;-50
2023/12/30 10:13:44;;;;;;;1.20;0.95;;;15.70;37.00;;;;;;4992476;28;20293;-47
2023/12/30 10:16:09;;;;;;;1.00;0.63;;;16.10;36.80;;;;;;4993380;28;20185;-51
2023/12/30 10:18:36;;;;;;;1.10;0.80;;;16.30;35.30;;;;;;5011890;28;20684;-46
2023/12/30 10:21:06;;;;;;;1.00;0.60;;;16.40;35.40;;;;;;5012383;28;20259;-48
2023/12/30 10:23:33;;;;;;;1.00;0.60;;;16.20;34.20;;;;;;5012199;28;20190;-46
2023/12/30 10:26:00;;;;;;;1.00;0.70;;;16.00;35.50;;;;;;5012115;28;20611;-52
2023/12/30 10:28:27;;;;;;;1.42;0.77;;;15.90;35.60;;;;;;4992918;28;20541;-51
2023/12/30 10:31:06;;;;;;;2.08;1.20;;;15.60;35.50;;;;;;4992413;28;20179;-45
2023/12/30 10:33:33;;;;;;;1.00;0.63;;;15.40;36.20;;;;;;4992173;28;20210;-51
2023/12/30 10:35:59;;;;;;;0.98;0.52;;;15.20;36.00;;;;;;4992566;28;20581;-46
2023/12/30 10:38:26;;;;;;;1.10;0.60;;;14.90;36.60;;;;;;4992137;28;20175;-50
2023/12/30 10:40:52;;;;;;;1.58;0.70;;;14.60;37.30;;;;;;4992311;28;20242;-46
2023/12/30 10:43:19;;;;;;;1.00;0.60;;;14.60;37.60;;;;;;4992171;28;20653;-46
2023/12/30 10:45:59;;;;;;;1.15;0.80;;;14.50;37.10;;;;;;4992242;28;20434;-52
2023/12/30 10:48:31;;;;;;;0.90;0.40;;;14.40;38.20;;;;;;4992126;28;20589;-48
2023/12/30 10:50:58;;;;;;;1.08;0.73;;;14.40;38.20;;;;;;4992423;28;20187;-48
2023/12/30 10:53:29;;;;;;;1.00;0.70;;;14.40;37.90;;;;;;4991937;28;20608;-48
2023/12/30 10:56:02;;;;;;;0.98;0.55;;;14.40;37.60;;;;;;4992307;28;20172;-51
2023/12/30 10:58:32;;;;;;;1.10;0.90;;;14.20;37.40;;;;;;4992026;28;20179;-45
2023/12/30 11:01:01;;;;;;;0.90;0.40;;;14.00;37.70;;;;;;4992271;28;20266;-49
2023/12/30 11:03:29;;;;;;;1.00;0.60;;;13.90;37.70;;;;;;4991981;28;20186;-46
2023/12/30 11:06:17;;;;;;;1.00;0.65;;;13.80;37.40;;;;;;4992178;28;20202;-46
2023/12/30 11:08:44;;;;;;;1.10;0.85;;;13.70;37.00;;;;;;4992144;28;20211;-49
2023/12/30 11:11:17;;;;;;;1.30;0.63;;;13.70;37.40;;;;;;4992184;28;20581;-45
2023/12/30 11:13:43;;;;;;;1.10;0.70;;;13.70;37.20;;;;;;4991973;28;20218;-48
2023/12/30 11:16:13;;;;;;;1.10;0.82;;;13.70;36.10;;;;;;4991992;28;20266;-45
2023/12/30 11:18:57;;;;;;;1.10;0.68;;;13.50;36.10;;;;;;4996637;28;20178;-45
2023/12/30 11:21:42;;;;;;;1.00;0.60;;;13.40;35.70;;;;;;5011657;28;20178;-50
2023/12/30 11:24:13;;;;;;;1.00;0.73;;;13.20;36.30;;;;;;5011372;28;20465;-46
2023/12/30 11:26:42;;;;;;;0.95;0.45;;;13.00;36.80;;;;;;5011515;28;20179;-50
2023/12/30 11:29:34;;;;;;;1.00;0.55;;;12.90;36.50;;;;;;5014950;28;20181;-48
2023/12/30 11:32:00;;;;;;;1.00;0.68;;;13.10;36.50;;;;;;5014988;28;20679;-45
2023/12/30 11:34:26;;;;;;;1.00;0.70;;;13.20;35.90;;;;;;5014782;28;20218;-53
2023/12/30 11:36:53;;;;;;;0.95;0.43;;;13.30;35.40;;;;;;5014946;28;20175;-51
2023/12/30 11:39:30;;;;;;;1.00;0.57;;;13.20;34.70;;;;;;5014663;28;20684;-47
2023/12/30 11:41:59;;;;;;;0.90;0.32;;;13.10;35.10;;;;;;5014864;28;20762;-51
2023/12/30 11:44:27;;;;;;;1.00;0.50;;;13.10;35.90;;;;;;5014678;28;20229;-47
2023/12/30 11:46:53;;;;;;;0.95;0.50;;;13.20;35.90;;;;;;5014933;28;20266;-52
2023/12/30 11:49:23;;;;;;;1.00;0.70;;;13.10;36.30;;;;;;5029324;22;20246;-53
2023/12/30 11:51:49;;;;;;;1.35;0.60;;;13.00;36.90;;;;;;5020378;28;20509;-55
2023/12/30 11:54:15;;;;;;;2.45;1.38;;;12.90;37.50;;;;;;5017947;28;20198;-53
2023/12/30 11:56:42;;;;;;;1.03;0.77;;;12.90;37.80;;;;;;5034589;28;20689;-50
2023/12/30 11:59:08;;;;;;;1.40;0.80;;;12.90;38.20;;;;;;5034098;28;20436;-59
2023/12/30 12:01:35;;;;;;;0.90;0.43;;;12.80;37.60;;;;;;5022376;28;20174;-59
2023/12/30 12:04:01;;;;;;;1.00;0.80;;;12.70;37.50;;;;;;5022044;28;20260;-51
2023/12/30 12:06:27;;;;;;;1.42;0.85;;;12.60;37.50;;;;;;5034281;28;20194;-53
2023/12/30 12:08:53;;;;;;;0.90;0.40;;;12.50;37.50;;;;;;5034095;28;20550;-58
2023/12/30 12:11:18;;;;;;;0.90;0.50;;;12.50;37.90;;;;;;5034047;28;20198;-52
2023/12/30 12:13:46;;;;;;;0.90;0.50;;;12.30;38.60;;;;;;5034002;28;20197;-50
2023/12/30 12:16:12;;;;;;;1.00;0.68;;;12.20;39.00;;;;;;5025196;28;20560;-59
2023/12/30 12:18:38;;;;;;;1.50;0.80;;;12.30;39.00;;;;;;5014161;28;20179;-52
2023/12/30 12:21:12;;;;;;;0.90;0.50;;;12.30;39.50;;;;;;5021950;28;20965;-53
2023/12/30 12:23:40;;;;;;;0.98;0.57;;;12.40;38.90;;;;;;5033916;28;20205;-58
2023/12/30 12:26:06;;;;;;;1.10;0.68;;;12.60;39.20;;;;;;5033872;28;20239;-54
2023/12/30 12:28:34;;;;;;;1.00;0.73;;;12.70;39.40;;;;;;5005859;28;20206;-55
2023/12/30 12:31:05;;;;;;;0.90;0.30;;;12.70;39.50;;;;;;5013970;28;20238;-52
2023/12/30 12:33:32;;;;;;;0.90;0.40;;;12.70;39.40;;;;;;5013925;28;20198;-58
2023/12/30 12:35:58;;;;;;;1.00;0.70;;;12.80;39.30;;;;;;5029097;28;20566;-58
2023/12/30 12:38:23;;;;;;;1.00;0.60;;;12.80;39.50;;;;;;5032642;28;20178;-53
2023/12/30 12:40:49;;;;;;;1.30;1.13;;;12.60;40.10;;;;;;5019271;28;20560;-54
2023/12/30 12:43:15;;;;;;;3.20;1.73;;;12.60;40.40;;;;;;5022937;28;20413;-59
2023/12/30 12:45:41;;;;;;;1.00;0.70;;;12.60;40.30;;;;;;5020915;28;20422;-53